createdAt,value
2017-07-14T00:01:22.728Z,15.90
2017-07-14T00:03:50.161Z,15.80
2017-07-14T00:06:17.613Z,15.80
2017-07-14T00:08:45.053Z,15.70
2017-07-14T00:11:12.541Z,15.70
2017-07-14T00:13:39.967Z,15.70
2017-07-14T00:16:07.391Z,15.70
2017-07-14T00:18:34.812Z,15.60
2017-07-14T00:21:02.229Z,15.70
2017-07-14T00:23:29.659Z,15.80
2017-07-14T00:25:57.082Z,15.80
2017-07-14T00:28:24.506Z,15.80
2017-07-14T00:30:51.930Z,15.80
2017-07-14T00:33:20.131Z,15.60
2017-07-14T00:35:47.559Z,15.60
2017-07-14T00:38:15.749Z,15.60
2017-07-14T00:40:43.184Z,15.50
2017-07-14T00:43:10.604Z,15.50
2017-07-14T00:45:38.040Z,15.60
2017-07-14T00:48:05.465Z,15.60
2017-07-14T00:50:33.648Z,15.50
2017-07-14T00:53:01.097Z,15.50
2017-07-14T00:55:28.601Z,15.50
2017-07-14T00:57:56.036Z,15.40
2017-07-14T01:00:23.470Z,15.40
2017-07-14T01:02:51.682Z,15.30
2017-07-14T01:05:19.107Z,15.30
2017-07-14T01:07:46.529Z,15.30
2017-07-14T01:10:13.965Z,15.30
2017-07-14T01:12:41.395Z,15.30
2017-07-14T01:15:08.821Z,15.20
2017-07-14T01:17:36.241Z,15.10
2017-07-14T01:20:03.676Z,15.10
2017-07-14T01:22:31.118Z,15.20
2017-07-14T01:24:58.536Z,15.20
2017-07-14T01:27:26.726Z,15.00
2017-07-14T01:29:54.155Z,15.00
2017-07-14T01:32:22.345Z,15.00
2017-07-14T01:34:49.773Z,15.00
2017-07-14T01:37:17.197Z,15.00
2017-07-14T01:39:44.633Z,14.90
2017-07-14T01:42:12.054Z,15.00
2017-07-14T01:44:40.246Z,15.00
2017-07-14T01:47:07.683Z,15.00
2017-07-14T01:49:35.196Z,14.90
2017-07-14T01:52:02.637Z,14.80
2017-07-14T01:54:30.053Z,14.70
2017-07-14T01:56:58.284Z,14.70
2017-07-14T01:59:25.710Z,14.70
2017-07-14T02:01:53.133Z,14.70
2017-07-14T02:04:21.329Z,14.80
2017-07-14T02:06:48.758Z,14.80
2017-07-14T02:09:16.962Z,14.70
2017-07-14T02:11:44.386Z,14.70
2017-07-14T02:14:11.814Z,14.60
2017-07-14T02:16:39.247Z,14.60
2017-07-14T02:19:06.672Z,14.60
2017-07-14T02:21:34.865Z,14.60
2017-07-14T02:24:02.285Z,14.50
2017-07-14T02:26:30.611Z,14.50
2017-07-14T02:28:58.027Z,14.50
2017-07-14T02:31:26.213Z,14.40
2017-07-14T02:33:53.644Z,14.40
2017-07-14T02:36:21.845Z,14.40
2017-07-14T02:38:49.273Z,14.40
2017-07-14T02:41:16.693Z,14.30
2017-07-14T02:43:44.115Z,14.30
2017-07-14T02:46:11.537Z,14.30
2017-07-14T02:48:39.729Z,14.10
2017-07-14T02:51:07.157Z,14.10
2017-07-14T02:53:34.581Z,14.10
2017-07-14T02:56:02.013Z,14.00
2017-07-14T02:58:29.434Z,14.10
2017-07-14T03:00:57.645Z,14.10
2017-07-14T03:03:25.076Z,14.00
2017-07-14T03:05:53.273Z,14.00
2017-07-14T03:08:20.701Z,14.00
2017-07-14T03:10:48.942Z,14.10
2017-07-14T03:13:16.367Z,14.00
2017-07-14T03:15:43.790Z,14.00
2017-07-14T03:18:12.014Z,14.00
2017-07-14T03:20:39.438Z,14.00
2017-07-14T03:23:06.897Z,13.90
2017-07-14T03:25:34.333Z,13.90
2017-07-14T03:28:02.525Z,13.90
2017-07-14T03:30:29.961Z,13.90
2017-07-14T03:32:57.403Z,13.90
2017-07-14T03:35:25.593Z,13.70
2017-07-14T03:37:53.038Z,13.70
2017-07-14T03:40:21.229Z,13.80
2017-07-14T03:42:48.669Z,13.70
2017-07-14T03:45:16.856Z,13.60
2017-07-14T03:47:44.301Z,13.60
2017-07-14T03:50:11.738Z,13.60
2017-07-14T03:52:39.154Z,13.60
2017-07-14T03:55:06.581Z,13.70
2017-07-14T03:57:34.008Z,13.70
2017-07-14T04:00:02.196Z,13.70
2017-07-14T04:02:29.638Z,13.70
2017-07-14T04:04:57.902Z,13.60
2017-07-14T04:07:25.334Z,13.60
2017-07-14T04:09:52.794Z,13.60
2017-07-14T04:12:20.257Z,13.60
2017-07-14T04:14:47.682Z,13.60
2017-07-14T04:17:15.122Z,13.60
2017-07-14T04:19:42.570Z,13.70
2017-07-14T04:22:09.992Z,13.70
2017-07-14T04:24:37.421Z,13.70
2017-07-14T04:27:04.845Z,13.70
2017-07-14T04:29:32.291Z,13.70
2017-07-14T04:32:00.484Z,13.70
2017-07-14T04:34:27.951Z,13.70
2017-07-14T04:36:55.373Z,13.60
2017-07-14T04:39:22.802Z,13.70
2017-07-14T04:41:51.025Z,13.80
2017-07-14T04:44:18.446Z,13.80
2017-07-14T04:46:46.670Z,13.90
2017-07-14T04:49:14.125Z,13.90
2017-07-14T04:51:41.561Z,13.90
2017-07-14T04:54:08.989Z,14.10
2017-07-14T04:56:36.414Z,14.30
2017-07-14T04:59:03.850Z,14.20
2017-07-14T05:01:31.282Z,14.20
2017-07-14T05:03:58.710Z,14.30
2017-07-14T05:06:26.935Z,14.30
2017-07-14T05:08:54.366Z,14.20
2017-07-14T05:11:21.792Z,14.30
2017-07-14T05:13:50.006Z,14.40
2017-07-14T05:16:17.430Z,14.30
2017-07-14T05:18:45.623Z,14.40
2017-07-14T05:21:13.040Z,14.40
2017-07-14T05:23:40.465Z,14.30
2017-07-14T05:26:07.910Z,14.30
2017-07-14T05:28:35.485Z,14.30
2017-07-14T05:31:02.923Z,14.40
2017-07-14T05:33:30.367Z,14.30
2017-07-14T05:35:57.780Z,14.30
2017-07-14T05:38:25.215Z,14.30
2017-07-14T05:40:52.652Z,14.30
2017-07-14T05:43:20.096Z,14.50
2017-07-14T05:45:47.531Z,14.60
2017-07-14T05:48:14.957Z,14.70
2017-07-14T05:50:42.386Z,14.80
2017-07-14T05:53:09.822Z,14.90
2017-07-14T05:55:37.250Z,15.00
2017-07-14T05:58:04.672Z,15.10
2017-07-14T06:00:32.107Z,15.20
2017-07-14T06:02:59.576Z,15.30
2017-07-14T06:05:27.019Z,15.40
2017-07-14T06:07:54.446Z,15.30
2017-07-14T06:10:22.662Z,15.30
2017-07-14T06:12:50.100Z,15.40
2017-07-14T06:15:17.519Z,15.40
2017-07-14T06:17:44.953Z,15.40
2017-07-14T06:20:13.166Z,15.40
2017-07-14T06:22:40.586Z,15.40
2017-07-14T06:25:08.788Z,15.50
2017-07-14T06:27:36.270Z,15.50
2017-07-14T06:30:03.693Z,15.50
2017-07-14T06:32:31.127Z,15.60
2017-07-14T06:34:59.322Z,15.90
2017-07-14T06:37:26.766Z,15.80
2017-07-14T06:39:54.965Z,16.30
2017-07-14T06:42:23.399Z,16.30
2017-07-14T06:44:50.822Z,16.50
2017-07-14T06:47:18.295Z,16.60
2017-07-14T06:49:45.704Z,16.70
2017-07-14T06:52:13.146Z,16.80
2017-07-14T06:54:40.593Z,17.00
2017-07-14T06:57:08.791Z,17.40
2017-07-14T06:59:36.236Z,17.40
2017-07-14T07:02:03.673Z,17.70
2017-07-14T07:04:31.198Z,17.60
2017-07-14T07:06:58.622Z,17.90
2017-07-14T07:09:26.054Z,18.20
2017-07-14T07:11:53.499Z,18.20
2017-07-14T07:14:21.735Z,18.30
2017-07-14T07:16:49.158Z,18.30
2017-07-14T07:19:16.593Z,18.20
2017-07-14T07:21:44.790Z,18.10
2017-07-14T07:24:12.237Z,18.00
2017-07-14T07:26:39.690Z,18.10
2017-07-14T07:29:07.151Z,18.20
2017-07-14T07:31:34.598Z,18.20
2017-07-14T07:34:02.014Z,18.10
2017-07-14T07:36:29.490Z,18.10
2017-07-14T07:42:13.293Z,18.00
2017-07-14T07:44:40.790Z,18.10
2017-07-14T07:47:13.934Z,18.10
2017-07-14T07:49:41.410Z,18.20
2017-07-14T07:52:08.876Z,18.20
2017-07-14T07:54:36.328Z,18.20
2017-07-14T07:57:03.772Z,18.30
2017-07-14T07:59:31.237Z,18.40
2017-07-14T08:01:58.702Z,18.50
2017-07-14T08:04:26.142Z,18.60
2017-07-14T08:06:53.565Z,18.80
2017-07-14T08:09:21.052Z,19.00
2017-07-14T08:11:48.513Z,19.20
2017-07-14T08:14:15.941Z,19.20
2017-07-14T08:16:43.380Z,19.30
2017-07-14T08:19:11.565Z,19.20
2017-07-14T08:21:38.993Z,19.20
2017-07-14T08:24:06.421Z,19.20
2017-07-14T08:26:33.845Z,19.10
2017-07-14T08:29:01.277Z,19.00
2017-07-14T08:31:29.494Z,19.00
2017-07-14T08:33:56.921Z,19.00
2017-07-14T08:36:24.360Z,19.20
2017-07-14T08:38:52.554Z,19.30
2017-07-14T08:41:19.984Z,19.30
2017-07-14T08:43:47.412Z,19.50
2017-07-14T08:46:14.832Z,19.60
2017-07-14T08:48:42.260Z,19.80
2017-07-14T08:51:10.445Z,20.30
2017-07-14T08:53:37.871Z,20.30
2017-07-14T08:56:06.073Z,20.70
2017-07-14T08:58:33.491Z,20.70
2017-07-14T09:01:01.007Z,20.80
2017-07-14T09:03:28.426Z,20.90
2017-07-14T09:05:56.617Z,20.80
2017-07-14T09:08:24.039Z,20.80
2017-07-14T09:10:52.249Z,20.60
2017-07-14T09:13:20.468Z,20.60
2017-07-14T09:15:47.902Z,20.50
2017-07-14T09:18:15.354Z,20.30
2017-07-14T09:20:42.796Z,20.30
2017-07-14T09:23:10.213Z,20.20
2017-07-14T09:25:37.633Z,20.20
2017-07-14T09:28:05.818Z,20.70
2017-07-14T09:30:33.254Z,20.70
2017-07-14T09:33:00.700Z,21.10
2017-07-14T09:35:28.135Z,21.40
2017-07-14T09:37:55.567Z,21.60
2017-07-14T09:40:22.988Z,21.80
2017-07-14T09:42:51.173Z,22.10
2017-07-14T09:45:18.618Z,22.10
2017-07-14T09:47:46.817Z,21.90
2017-07-14T09:50:14.239Z,21.90
2017-07-14T09:52:41.671Z,21.80
2017-07-14T09:55:09.137Z,21.50
2017-07-14T09:57:36.562Z,21.40
2017-07-14T10:00:03.998Z,21.40
2017-07-14T10:02:31.425Z,21.40
2017-07-14T10:04:59.614Z,21.50
2017-07-14T10:07:27.056Z,21.50
2017-07-14T10:09:55.253Z,21.50
2017-07-14T10:12:22.685Z,21.40
2017-07-14T10:14:50.115Z,21.50
2017-07-14T10:17:17.575Z,21.50
2017-07-14T10:19:45.765Z,21.30
2017-07-14T10:22:13.211Z,21.30
2017-07-14T10:24:40.636Z,21.20
2017-07-14T10:27:08.865Z,21.70
2017-07-14T10:29:36.298Z,21.70
2017-07-14T10:32:03.777Z,21.90
2017-07-14T10:34:31.258Z,22.20
2017-07-14T10:36:58.703Z,22.30
2017-07-14T10:39:26.135Z,22.10
2017-07-14T10:41:54.324Z,22.60
2017-07-14T10:44:21.821Z,22.60
2017-07-14T10:46:49.257Z,22.70
2017-07-14T10:49:16.709Z,22.80
2017-07-14T10:51:44.138Z,22.90
2017-07-14T10:54:12.360Z,23.40
2017-07-14T10:56:39.814Z,23.40
2017-07-14T10:59:07.270Z,23.50
2017-07-14T11:01:34.721Z,23.20
2017-07-14T11:04:02.149Z,23.30
2017-07-14T11:06:29.595Z,23.10
2017-07-14T11:08:57.790Z,23.30
2017-07-14T11:11:25.224Z,23.30
2017-07-14T11:13:53.412Z,23.90
2017-07-14T11:16:20.842Z,23.90
2017-07-14T11:18:48.349Z,23.70
2017-07-14T11:21:15.803Z,23.90
2017-07-14T11:23:43.241Z,24.30
2017-07-14T11:26:10.669Z,24.40
2017-07-14T11:28:38.885Z,24.40
2017-07-14T11:31:06.300Z,24.30
2017-07-14T11:33:34.517Z,23.40
2017-07-14T11:36:01.964Z,23.40
2017-07-14T11:38:29.405Z,23.30
2017-07-14T11:40:57.581Z,23.30
2017-07-14T11:43:25.001Z,23.30
2017-07-14T11:45:52.454Z,22.90
2017-07-14T11:48:19.897Z,22.90
2017-07-14T11:50:47.328Z,22.90
2017-07-14T11:53:14.750Z,22.90
2017-07-14T11:55:42.950Z,22.90
2017-07-14T11:58:10.377Z,22.90
2017-07-14T12:00:38.586Z,22.60
2017-07-14T12:03:06.007Z,22.60
2017-07-14T12:05:33.510Z,22.60
2017-07-14T12:08:00.958Z,22.80
2017-07-14T12:10:28.394Z,23.10
2017-07-14T12:12:55.817Z,23.60
2017-07-14T12:15:23.247Z,24.20
2017-07-14T12:17:50.669Z,24.40
2017-07-14T12:20:18.106Z,24.70
2017-07-14T12:22:45.517Z,25.20
2017-07-14T12:25:12.953Z,26.00
2017-07-14T12:27:40.377Z,26.60
2017-07-14T12:30:08.075Z,27.60
2017-07-14T12:32:35.510Z,28.20
2017-07-14T12:35:02.973Z,28.10
2017-07-14T12:37:30.405Z,27.70
2017-07-14T12:39:57.881Z,26.90
2017-07-14T12:42:25.287Z,25.90
2017-07-14T12:44:52.817Z,25.80
2017-07-14T12:47:20.253Z,25.80
2017-07-14T12:49:47.742Z,27.20
2017-07-14T12:52:15.173Z,27.80
2017-07-14T12:54:42.600Z,28.60
2017-07-14T12:57:10.037Z,27.10
2017-07-14T12:59:38.260Z,28.30
2017-07-14T13:02:05.682Z,28.30
2017-07-14T13:04:33.107Z,30.00
2017-07-14T13:07:00.536Z,32.20
2017-07-14T13:09:27.956Z,34.10
2017-07-14T13:11:55.448Z,35.30
2017-07-14T13:14:22.880Z,33.90
2017-07-14T13:16:50.299Z,31.50
2017-07-14T13:19:17.729Z,29.30
2017-07-14T13:21:45.164Z,27.20
2017-07-14T13:24:12.615Z,25.90
2017-07-14T13:26:40.074Z,25.20
2017-07-14T13:29:07.486Z,24.80
2017-07-14T13:31:35.674Z,24.60
2017-07-14T13:34:03.093Z,24.50
2017-07-14T13:36:30.520Z,25.90
2017-07-14T13:38:57.943Z,26.70
2017-07-14T13:41:25.369Z,27.10
2017-07-14T13:43:53.560Z,29.80
2017-07-14T13:46:21.752Z,32.00
2017-07-14T13:48:49.243Z,31.90
2017-07-14T13:51:16.711Z,33.50
2017-07-14T13:53:44.161Z,33.00
2017-07-14T13:56:11.599Z,32.60
2017-07-14T13:58:39.017Z,32.60
2017-07-14T14:01:07.206Z,30.10
2017-07-14T14:03:34.626Z,30.10
2017-07-14T14:06:02.822Z,27.70
2017-07-14T14:08:30.317Z,27.60
2017-07-14T14:10:57.773Z,27.20
2017-07-14T14:13:25.195Z,26.90
2017-07-14T14:15:52.617Z,26.80
2017-07-14T14:18:20.047Z,27.00
2017-07-14T14:20:47.477Z,26.90
2017-07-14T14:23:14.892Z,26.40
2017-07-14T14:25:43.110Z,25.10
2017-07-14T14:28:10.572Z,25.10
2017-07-14T14:30:38.729Z,24.70
2017-07-14T14:33:06.164Z,24.70
2017-07-14T14:35:34.346Z,24.80
2017-07-14T14:38:01.781Z,24.70
2017-07-14T14:40:29.961Z,25.60
2017-07-14T14:42:58.147Z,26.20
2017-07-14T14:45:25.567Z,26.30
2017-07-14T14:47:53.087Z,26.80
2017-07-14T14:50:20.500Z,27.10
2017-07-14T14:52:48.693Z,28.50
2017-07-14T14:55:16.189Z,28.40
2017-07-14T14:57:43.610Z,28.00
2017-07-14T15:00:11.043Z,26.90
2017-07-14T15:02:39.269Z,25.20
2017-07-14T15:05:06.673Z,25.20
2017-07-14T15:07:34.863Z,24.30
2017-07-14T15:10:02.318Z,24.30
2017-07-14T15:12:29.740Z,23.90
2017-07-14T15:14:57.271Z,23.60
2017-07-14T15:17:24.725Z,23.40
2017-07-14T15:19:52.171Z,23.10
2017-07-14T15:22:19.607Z,22.90
2017-07-14T15:24:47.038Z,22.70
2017-07-14T15:27:15.243Z,22.40
2017-07-14T15:29:42.680Z,22.40
2017-07-14T15:32:10.877Z,22.20
2017-07-14T15:34:38.315Z,22.10
2017-07-14T15:37:05.764Z,22.10
2017-07-14T15:39:33.946Z,21.90
2017-07-14T15:42:01.387Z,21.90
2017-07-14T15:44:29.575Z,21.70
2017-07-14T15:46:57.031Z,21.70
2017-07-14T15:49:24.520Z,21.70
2017-07-14T15:51:51.953Z,21.60
2017-07-14T15:54:19.383Z,21.60
2017-07-14T15:56:47.598Z,21.50
2017-07-14T15:59:15.022Z,21.50
2017-07-14T16:01:43.214Z,21.30
2017-07-14T16:04:10.653Z,21.30
2017-07-14T16:06:38.083Z,21.30
2017-07-14T16:09:05.538Z,21.30
2017-07-14T16:11:32.969Z,21.10
2017-07-14T16:14:00.394Z,21.00
2017-07-14T16:19:01.782Z,20.70
2017-07-14T16:21:29.219Z,20.60
2017-07-14T16:23:56.641Z,20.50
2017-07-14T16:26:24.833Z,20.30
2017-07-14T16:28:52.285Z,20.30
2017-07-14T16:31:19.728Z,20.20
2017-07-14T16:33:47.928Z,20.10
2017-07-14T16:36:15.363Z,20.10
2017-07-14T16:38:42.800Z,19.90
2017-07-14T16:41:10.215Z,19.80
2017-07-14T16:43:37.646Z,19.70
2017-07-14T16:46:36.766Z,19.60
2017-07-14T16:49:04.197Z,19.50
2017-07-14T16:51:31.628Z,19.50
2017-07-14T16:53:59.828Z,19.70
2017-07-14T16:56:27.241Z,19.70
2017-07-14T16:58:54.764Z,19.80
2017-07-14T17:01:22.210Z,19.80
2017-07-14T17:03:49.641Z,19.80
2017-07-14T17:06:17.099Z,19.70
2017-07-14T17:08:44.535Z,19.60
2017-07-14T17:11:12.753Z,19.20
2017-07-14T17:13:40.203Z,19.10
2017-07-14T17:16:07.682Z,18.80
2017-07-14T17:18:35.133Z,18.60
2017-07-14T17:21:02.561Z,18.30
2017-07-14T17:23:30.004Z,18.10
2017-07-14T17:25:57.435Z,17.80
2017-07-14T17:28:24.975Z,17.70
2017-07-14T17:30:52.410Z,17.50
2017-07-14T17:33:20.167Z,17.40
2017-07-14T17:35:47.907Z,17.30
2017-07-14T17:38:16.631Z,17.00
2017-07-14T17:40:44.259Z,17.00
2017-07-14T17:43:11.950Z,17.00
2017-07-14T17:45:39.377Z,17.00
2017-07-14T17:48:06.913Z,16.90
2017-07-14T17:50:35.102Z,16.80
2017-07-14T17:53:02.521Z,16.80
2017-07-14T17:55:29.947Z,16.80
2017-07-14T17:57:57.371Z,16.70
2017-07-14T18:00:24.811Z,16.70
2017-07-14T18:02:52.232Z,16.60
2017-07-14T18:05:19.655Z,16.70
2017-07-14T18:07:47.088Z,16.60
2017-07-14T18:10:14.521Z,16.60
2017-07-14T18:12:42.708Z,16.60
2017-07-14T18:15:10.139Z,16.60
2017-07-14T18:17:38.326Z,16.60
2017-07-14T18:20:06.525Z,16.60
2017-07-14T18:22:33.944Z,16.60
2017-07-14T18:25:02.142Z,16.60
2017-07-14T18:27:29.569Z,16.60
2017-07-14T18:29:56.990Z,16.60
2017-07-14T18:32:24.424Z,16.80
2017-07-14T18:34:51.861Z,17.10
2017-07-14T18:37:19.402Z,17.40
2017-07-14T18:39:47.605Z,17.60
2017-07-14T18:42:15.118Z,17.60
2017-07-14T18:44:42.537Z,17.70
2017-07-14T18:47:09.975Z,17.70
2017-07-14T18:49:37.401Z,17.60
2017-07-14T18:52:05.611Z,17.60
2017-07-14T18:54:33.042Z,17.60
2017-07-14T18:57:01.237Z,17.70
2017-07-14T18:59:28.662Z,17.60
2017-07-14T19:01:56.854Z,17.40
2017-07-14T19:04:24.315Z,17.40
2017-07-14T19:06:51.832Z,17.50
2017-07-14T19:09:19.273Z,17.50
2017-07-14T19:11:46.713Z,17.30
2017-07-14T19:14:14.134Z,17.10
2017-07-14T19:16:41.563Z,16.80
2017-07-14T19:19:09.759Z,16.70
2017-07-14T19:21:37.225Z,16.70
2017-07-14T19:24:04.855Z,16.60
2017-07-14T19:26:33.233Z,16.30
2017-07-14T19:29:01.471Z,16.20
2017-07-14T19:31:29.138Z,16.20
2017-07-14T19:33:56.676Z,16.30
2017-07-14T19:36:25.722Z,16.30
2017-07-14T19:38:55.140Z,16.20
2017-07-14T19:41:22.749Z,16.00
2017-07-14T19:43:50.220Z,16.00
2017-07-14T19:46:17.670Z,16.10
2017-07-14T19:48:45.133Z,16.00
2017-07-14T19:51:12.722Z,16.00
2017-07-14T19:53:40.241Z,16.00
2017-07-14T19:59:06.974Z,16.00
2017-07-14T20:01:34.543Z,16.10
2017-07-14T20:04:02.162Z,16.10
2017-07-14T20:06:29.652Z,16.20
2017-07-14T20:08:57.168Z,16.10
2017-07-14T20:11:25.385Z,16.10
2017-07-14T20:13:52.920Z,16.10
2017-07-14T20:16:21.210Z,16.10
2017-07-14T20:18:48.703Z,16.10
2017-07-14T20:21:16.997Z,16.00
2017-07-14T20:23:45.217Z,16.10
2017-07-14T20:26:12.912Z,16.10
2017-07-14T20:28:40.431Z,16.10
2017-07-14T20:31:07.939Z,16.00
2017-07-14T20:33:35.552Z,16.10
2017-07-14T20:36:03.872Z,16.00
2017-07-14T20:38:31.406Z,16.00
2017-07-14T20:40:58.905Z,16.00
2017-07-14T20:43:26.403Z,16.00
2017-07-14T20:45:53.837Z,16.00
2017-07-14T20:48:21.820Z,16.00
2017-07-14T20:50:50.312Z,16.00
2017-07-14T20:53:28.107Z,15.90
2017-07-14T20:56:00.399Z,16.00
2017-07-14T20:58:27.875Z,16.30
2017-07-14T21:00:55.360Z,16.50
2017-07-14T21:03:23.670Z,16.70
2017-07-14T21:05:51.171Z,16.70
2017-07-14T21:08:19.621Z,16.80
2017-07-14T21:10:47.114Z,16.80
2017-07-14T21:13:14.635Z,16.60
2017-07-14T21:15:42.162Z,16.60
2017-07-14T21:18:09.654Z,16.50
2017-07-14T21:20:37.073Z,16.30
2017-07-14T21:23:04.550Z,16.30
2017-07-14T21:25:32.008Z,16.20
2017-07-14T21:27:59.534Z,16.20
2017-07-14T21:30:27.033Z,16.20
2017-07-14T21:32:54.552Z,16.20
2017-07-14T21:35:22.045Z,16.20
2017-07-14T21:37:49.574Z,16.30
2017-07-14T21:40:18.079Z,16.20
2017-07-14T21:42:45.919Z,16.10
2017-07-14T21:45:13.842Z,16.10
2017-07-14T21:47:41.736Z,16.00
2017-07-14T21:50:10.733Z,16.00
2017-07-14T21:52:39.508Z,15.90
2017-07-14T21:55:07.460Z,15.90
2017-07-14T21:57:35.969Z,16.00
2017-07-14T22:00:05.853Z,15.90
2017-07-14T22:02:33.372Z,15.90
2017-07-14T22:05:01.578Z,15.90
2017-07-14T22:07:34.306Z,15.90
2017-07-14T22:10:06.712Z,15.90
2017-07-14T22:12:34.275Z,15.90
2017-07-14T22:15:01.737Z,15.90
2017-07-14T22:17:29.239Z,15.90
2017-07-14T22:19:56.765Z,15.90
2017-07-14T22:22:24.222Z,15.90
2017-07-14T22:24:51.702Z,15.90
2017-07-14T22:27:19.159Z,15.90
2017-07-14T22:29:46.883Z,15.80
2017-07-14T22:32:14.362Z,15.80
2017-07-14T22:34:41.847Z,15.80
2017-07-14T22:37:09.322Z,15.80
2017-07-14T22:39:36.942Z,15.70
2017-07-14T22:42:04.573Z,15.70
2017-07-14T22:44:32.058Z,15.70
2017-07-14T22:46:59.492Z,15.70
2017-07-14T22:49:26.994Z,15.60
2017-07-14T22:51:54.540Z,15.50
2017-07-14T22:54:22.874Z,15.50
2017-07-14T22:56:50.357Z,15.50
2017-07-14T22:59:17.867Z,15.40
2017-07-14T23:01:46.077Z,15.30
2017-07-14T23:04:13.565Z,15.30
2017-07-14T23:06:41.030Z,15.20
2017-07-14T23:09:08.484Z,15.20
2017-07-14T23:11:35.946Z,15.20
2017-07-14T23:14:04.216Z,15.10
2017-07-14T23:16:31.718Z,15.10
2017-07-14T23:18:59.224Z,15.10
2017-07-14T23:21:27.501Z,14.90
2017-07-14T23:23:56.124Z,14.90
2017-07-14T23:26:23.954Z,14.90
2017-07-14T23:28:51.733Z,14.90
2017-07-14T23:31:19.425Z,14.80
2017-07-14T23:33:47.039Z,14.80
2017-07-14T23:36:15.482Z,14.80
2017-07-14T23:38:43.081Z,14.80
2017-07-14T23:41:10.833Z,14.80
2017-07-14T23:43:38.382Z,14.80
2017-07-14T23:46:05.951Z,14.80
2017-07-14T23:48:33.935Z,14.80
2017-07-14T23:51:01.951Z,14.70
2017-07-14T23:53:29.634Z,14.70
2017-07-14T23:55:57.063Z,14.70
2017-07-14T23:58:24.617Z,14.60
